Terminal Aerodrome Forecast
Issued by NWS

Home | Current Version | Previous Version | Text Only | Print | Product List | Glossary On
Versions: 1 2 3 4 5 6 7 8 9 10 11 12 13 14 15
328
FTUS45 KRIW 191125
TAFRKS
TAF
KRKS 191125Z 1912/2012 24008KT P6SM SKC
     FM191900 27012G22KT P6SM FEW110 SCT200
     FM200200 25008KT P6SM SCT200=

USA.gov is the U.S. government's official web portal to all federal, state and local government web resources and services.